createdAt,value
2019-04-19T00:01:55.334Z,53.80
2019-04-19T00:04:20.219Z,53.30
2019-04-19T00:07:01.443Z,53.40
2019-04-19T00:09:34.647Z,52.60
2019-04-19T00:12:06.589Z,52.50
2019-04-19T00:14:29.346Z,52.60
2019-04-19T00:16:59.688Z,52.00
2019-04-19T00:19:45.184Z,52.00
2019-04-19T00:22:18.514Z,51.60
2019-04-19T00:24:33.427Z,51.50
2019-04-19T00:27:04.026Z,51.20
2019-04-19T00:29:44.854Z,51.50
2019-04-19T00:32:20.692Z,51.70
2019-04-19T00:34:39.868Z,51.90
2019-04-19T00:37:11.937Z,51.60
2019-04-19T00:40:20.023Z,51.40
2019-04-19T00:43:05.286Z,51.30
2019-04-19T00:46:09.225Z,51.20
2019-04-19T00:48:42.365Z,50.90
2019-04-19T00:51:09.770Z,50.40
2019-04-19T00:53:40.997Z,50.30
2019-04-19T00:56:12.473Z,49.90
2019-04-19T00:58:37.464Z,49.50
2019-04-19T01:01:13.483Z,49.30
2019-04-19T01:03:43.631Z,48.90
2019-04-19T01:06:14.147Z,48.60
2019-04-19T01:08:51.864Z,48.30
2019-04-19T01:11:27.626Z,48.30
2019-04-19T01:14:01.088Z,48.20
2019-04-19T01:16:28.934Z,48.20
2019-04-19T01:18:56.144Z,48.20
2019-04-19T01:21:19.519Z,48.20
2019-04-19T01:23:53.975Z,48.30
2019-04-19T01:26:21.525Z,48.20
2019-04-19T01:29:00.274Z,48.50
2019-04-19T01:31:26.307Z,48.30
2019-04-19T01:33:54.692Z,48.60
2019-04-19T01:36:30.561Z,48.60
2019-04-19T01:39:16.566Z,48.70
2019-04-19T01:41:41.804Z,48.80
2019-04-19T01:44:29.021Z,48.80
2019-04-19T01:47:03.107Z,49.00
2019-04-19T01:49:49.264Z,49.30
2019-04-19T01:52:37.117Z,49.30
2019-04-19T01:54:54.349Z,49.50
2019-04-19T01:57:14.099Z,49.70
2019-04-19T01:59:48.402Z,49.80
2019-04-19T02:02:17.891Z,49.90
2019-04-19T02:04:47.598Z,49.90
2019-04-19T02:07:22.328Z,50.10
2019-04-19T02:10:02.785Z,50.30
2019-04-19T02:12:34.536Z,50.40
2019-04-19T02:14:59.508Z,50.50
2019-04-19T02:17:27.588Z,50.70
2019-04-19T02:20:00.533Z,50.80
2019-04-19T02:22:32.755Z,51.00
2019-04-19T02:25:00.435Z,51.10
2019-04-19T02:27:34.067Z,51.20
2019-04-19T02:30:11.225Z,51.30
2019-04-19T02:32:50.969Z,51.20
2019-04-19T02:35:47.897Z,51.30
2019-04-19T02:37:57.416Z,51.40
2019-04-19T02:43:06.829Z,51.60
2019-04-19T02:48:07.760Z,51.80
2019-04-19T02:51:02.000Z,51.90
2019-04-19T02:55:50.156Z,52.80
2019-04-19T03:00:58.582Z,52.50
2019-04-19T03:05:53.369Z,53.10
2019-04-19T03:08:06.245Z,52.70
2019-04-19T03:10:49.875Z,52.70
2019-04-19T03:13:21.800Z,52.90
2019-04-19T03:16:09.726Z,53.00
2019-04-19T03:20:54.248Z,53.60
2019-04-19T03:23:26.334Z,53.40
2019-04-19T03:25:54.652Z,53.40
2019-04-19T03:28:25.700Z,54.00
2019-04-19T03:31:20.429Z,53.60
2019-04-19T03:36:11.899Z,53.70
2019-04-19T03:38:40.452Z,53.80
2019-04-19T03:41:27.367Z,53.70
2019-04-19T03:43:51.777Z,54.00
2019-04-19T03:46:22.886Z,54.20
2019-04-19T03:48:51.545Z,54.10
2019-04-19T03:51:24.645Z,54.30
2019-04-19T03:54:16.123Z,54.30
2019-04-19T03:56:43.719Z,54.40
2019-04-19T03:58:42.267Z,54.90
2019-04-19T04:01:12.901Z,54.60
2019-04-19T04:03:46.139Z,54.80
2019-04-19T04:06:23.079Z,54.60
2019-04-19T04:08:53.642Z,54.70
2019-04-19T04:11:28.085Z,54.80
2019-04-19T04:14:16.947Z,54.80
2019-04-19T04:16:43.845Z,54.80
2019-04-19T04:19:10.300Z,54.90
2019-04-19T04:21:46.376Z,55.00
2019-04-19T04:24:20.796Z,55.00
2019-04-19T04:26:56.127Z,55.00
2019-04-19T04:29:23.709Z,54.80
2019-04-19T04:31:59.483Z,55.00
2019-04-19T04:34:32.399Z,55.00
2019-04-19T04:37:09.823Z,54.80
2019-04-19T04:39:22.359Z,54.80
2019-04-19T04:42:05.709Z,54.70
2019-04-19T04:44:44.402Z,54.70
2019-04-19T04:47:33.902Z,54.70
2019-04-19T04:50:11.999Z,54.80
2019-04-19T04:52:37.026Z,54.60
2019-04-19T04:55:09.571Z,54.60
2019-04-19T04:57:47.709Z,54.60
2019-04-19T05:00:11.907Z,54.70
2019-04-19T05:02:59.065Z,54.50
2019-04-19T05:05:31.621Z,54.50
2019-04-19T05:08:09.154Z,54.40
2019-04-19T05:10:33.379Z,54.10
2019-04-19T05:15:40.331Z,53.90
2019-04-19T05:18:18.252Z,54.00
2019-04-19T05:20:40.985Z,53.60
2019-04-19T05:23:12.260Z,53.60
2019-04-19T05:25:49.045Z,53.40
2019-04-19T05:28:16.744Z,53.00
2019-04-19T05:30:40.200Z,52.60
2019-04-19T05:33:09.888Z,51.80
2019-04-19T05:35:54.286Z,50.70
2019-04-19T05:38:51.842Z,49.90
2019-04-19T05:41:35.018Z,49.10
2019-04-19T05:46:53.504Z,47.90
2019-04-19T05:49:19.378Z,47.40
2019-04-19T05:51:55.385Z,47.00
2019-04-19T05:54:13.204Z,47.10
2019-04-19T05:56:45.106Z,46.70
2019-04-19T05:59:21.458Z,46.40
2019-04-19T06:01:59.104Z,46.40
2019-04-19T06:04:34.648Z,46.30
2019-04-19T06:07:09.424Z,46.20
2019-04-19T06:09:21.800Z,45.90
2019-04-19T06:11:51.751Z,45.20
2019-04-19T06:14:45.406Z,45.30
2019-04-19T06:17:29.302Z,44.80
2019-04-19T06:20:04.633Z,44.70
2019-04-19T06:22:37.078Z,44.30
2019-04-19T06:25:10.250Z,44.50
2019-04-19T06:27:51.447Z,44.50
2019-04-19T06:30:16.142Z,44.00
2019-04-19T06:32:46.125Z,44.10
2019-04-19T06:35:09.925Z,43.70
2019-04-19T06:37:28.550Z,43.70
2019-04-19T06:40:03.858Z,43.90
2019-04-19T06:42:35.955Z,43.50
2019-04-19T06:45:19.991Z,43.20
2019-04-19T06:47:38.928Z,43.10
2019-04-19T06:50:04.860Z,43.40
2019-04-19T06:52:36.735Z,43.10
2019-04-19T06:55:14.084Z,42.70
2019-04-19T06:57:50.076Z,42.90
2019-04-19T07:00:22.740Z,42.60
2019-04-19T07:02:41.790Z,42.50
2019-04-19T07:05:23.281Z,42.20
2019-04-19T07:08:10.061Z,42.10
2019-04-19T07:10:42.715Z,42.10
2019-04-19T07:13:05.837Z,42.70
2019-04-19T07:15:53.528Z,41.90
2019-04-19T07:18:06.257Z,41.70
2019-04-19T07:20:33.949Z,41.60
2019-04-19T07:23:06.849Z,41.70
2019-04-19T07:25:48.974Z,41.80
2019-04-19T07:28:08.066Z,41.50
2019-04-19T07:30:28.925Z,41.20
2019-04-19T07:33:05.877Z,41.30
2019-04-19T07:35:54.213Z,41.40
2019-04-19T07:40:54.161Z,41.60
2019-04-19T07:43:23.642Z,41.40
2019-04-19T07:46:08.469Z,41.50
2019-04-19T07:48:42.753Z,41.50
2019-04-19T07:51:20.227Z,41.70
2019-04-19T07:53:48.868Z,41.60
2019-04-19T07:56:27.321Z,42.10
2019-04-19T07:59:13.214Z,41.90
2019-04-19T08:01:54.532Z,41.80
2019-04-19T08:04:40.577Z,42.00
2019-04-19T08:06:58.286Z,42.30
2019-04-19T08:09:18.807Z,42.00
2019-04-19T08:14:22.859Z,42.50
2019-04-19T08:17:30.492Z,42.30
2019-04-19T08:29:22.439Z,41.50
2019-04-19T08:31:40.261Z,41.50
2019-04-19T08:34:17.648Z,41.60
2019-04-19T08:36:53.124Z,41.80
2019-04-19T08:39:33.839Z,41.90
2019-04-19T08:42:12.099Z,41.70
2019-04-19T08:44:34.800Z,41.40
2019-04-19T08:47:21.276Z,41.20
2019-04-19T08:50:02.724Z,40.40
2019-04-19T08:52:36.856Z,40.50
2019-04-19T08:55:26.017Z,40.40
2019-04-19T08:57:37.447Z,40.60
2019-04-19T09:00:41.101Z,40.60
2019-04-19T09:02:50.367Z,39.40
2019-04-19T09:05:26.980Z,39.10
2019-04-19T09:08:08.476Z,38.20
2019-04-19T09:10:33.554Z,38.70
2019-04-19T09:13:18.178Z,38.80
2019-04-19T09:15:33.084Z,38.90
2019-04-19T09:18:26.169Z,38.80
2019-04-19T09:20:44.475Z,38.80
2019-04-19T09:23:13.039Z,39.30
2019-04-19T09:25:40.963Z,38.20
2019-04-19T09:28:33.450Z,37.50
2019-04-19T09:30:52.300Z,37.60
2019-04-19T09:33:13.555Z,37.50
2019-04-19T09:35:52.278Z,37.30
2019-04-19T09:38:21.415Z,37.30
2019-04-19T09:40:50.377Z,37.30
2019-04-19T09:43:30.035Z,36.60
2019-04-19T09:45:46.921Z,35.60
2019-04-19T09:48:37.904Z,35.40
2019-04-19T09:51:04.660Z,34.30
2019-04-19T09:53:46.910Z,33.20
2019-04-19T09:56:13.438Z,32.60
2019-04-19T09:58:40.532Z,33.10
2019-04-19T10:01:06.833Z,33.70
2019-04-19T10:03:44.093Z,33.70
2019-04-19T10:06:10.765Z,33.70
2019-04-19T10:08:41.996Z,33.30
2019-04-19T10:11:12.708Z,32.20
2019-04-19T10:13:43.922Z,30.90
2019-04-19T10:16:40.025Z,30.70
2019-04-19T10:19:11.533Z,31.10
2019-04-19T10:21:54.184Z,31.60
2019-04-19T10:24:24.802Z,31.90
2019-04-19T10:27:07.305Z,31.50
2019-04-19T10:29:40.679Z,30.90
2019-04-19T10:32:44.574Z,31.00
2019-04-19T10:35:15.512Z,31.50
2019-04-19T10:37:46.018Z,31.90
2019-04-19T10:40:17.469Z,32.70
2019-04-19T10:42:47.682Z,32.30
2019-04-19T10:45:18.384Z,31.60
2019-04-19T10:47:49.367Z,32.00
2019-04-19T10:50:33.435Z,31.80
2019-04-19T10:52:52.550Z,31.60
2019-04-19T10:55:24.721Z,31.30
2019-04-19T10:57:54.609Z,30.60
2019-04-19T11:00:25.132Z,30.40
2019-04-19T11:02:55.025Z,30.70
2019-04-19T11:05:28.976Z,30.50
2019-04-19T11:07:59.349Z,30.90
2019-04-19T11:10:29.522Z,30.40
2019-04-19T11:13:00.539Z,30.20
2019-04-19T11:15:30.794Z,30.70
2019-04-19T11:18:01.544Z,31.90
2019-04-19T11:20:40.248Z,30.90
2019-04-19T11:23:03.883Z,30.30
2019-04-19T11:25:35.696Z,29.80
2019-04-19T11:28:07.026Z,30.00
2019-04-19T11:30:48.956Z,29.80
2019-04-19T11:33:23.479Z,29.80
2019-04-19T11:35:55.377Z,29.20
2019-04-19T11:38:26.997Z,30.00
2019-04-19T11:40:58.585Z,30.00
2019-04-19T11:43:29.783Z,29.90
2019-04-19T11:46:02.113Z,29.70
2019-04-19T11:48:34.802Z,29.50
2019-04-19T11:51:05.687Z,30.10
2019-04-19T11:53:40.772Z,30.00
2019-04-19T11:56:54.286Z,29.90
2019-04-19T11:59:34.173Z,30.30
2019-04-19T12:01:59.888Z,30.00
2019-04-19T12:04:30.163Z,30.00
2019-04-19T12:07:00.773Z,29.80
2019-04-19T12:09:30.783Z,30.00
2019-04-19T12:12:00.578Z,29.40
2019-04-19T12:14:31.553Z,29.10
2019-04-19T12:17:02.817Z,30.00
2019-04-19T12:19:41.400Z,30.30
2019-04-19T12:22:05.460Z,30.40
2019-04-19T12:24:36.071Z,30.80
2019-04-19T12:27:07.435Z,30.20
2019-04-19T12:29:44.175Z,30.30
2019-04-19T12:32:09.544Z,30.40
2019-04-19T12:34:40.420Z,29.90
2019-04-19T12:37:11.065Z,30.20
2019-04-19T12:39:41.144Z,29.80
2019-04-19T12:42:28.205Z,29.70
2019-04-19T12:44:58.130Z,29.70
2019-04-19T12:47:28.957Z,29.80
2019-04-19T12:50:05.691Z,30.20
2019-04-19T12:52:31.426Z,30.30
2019-04-19T12:55:01.920Z,30.40
2019-04-19T12:57:36.331Z,30.20
2019-04-19T13:00:07.845Z,30.00
2019-04-19T13:03:02.147Z,30.10
2019-04-19T13:05:37.455Z,30.10
2019-04-19T13:08:07.590Z,31.30
2019-04-19T13:10:38.481Z,31.70
2019-04-19T13:13:09.776Z,31.90
2019-04-19T13:15:40.656Z,31.60
2019-04-19T13:18:10.358Z,31.80
2019-04-19T13:20:41.919Z,31.90
2019-04-19T13:23:12.527Z,31.50
2019-04-19T13:25:42.358Z,31.70
2019-04-19T13:28:13.271Z,31.90
2019-04-19T13:30:50.766Z,32.10
2019-04-19T13:33:16.412Z,31.70
2019-04-19T13:35:46.585Z,31.60
2019-04-19T13:38:32.968Z,31.50
2019-04-19T13:41:20.960Z,31.40
2019-04-19T13:43:51.103Z,31.50
2019-04-19T13:46:22.293Z,31.40
2019-04-19T13:48:52.618Z,31.20
2019-04-19T13:51:22.802Z,31.60
2019-04-19T13:53:54.432Z,31.00
2019-04-19T13:56:24.871Z,31.20
2019-04-19T13:58:55.895Z,31.10
2019-04-19T14:01:25.897Z,31.00
2019-04-19T14:03:55.679Z,31.10
2019-04-19T14:06:26.527Z,30.30
2019-04-19T14:08:57.543Z,30.30
2019-04-19T14:11:28.927Z,30.30
2019-04-19T14:14:00.784Z,30.20
2019-04-19T14:16:30.374Z,30.90
2019-04-19T14:19:00.576Z,30.00
2019-04-19T14:21:32.852Z,29.90
2019-04-19T14:24:03.789Z,29.90
2019-04-19T14:26:39.767Z,29.40
2019-04-19T14:29:05.758Z,29.40
2019-04-19T14:31:36.569Z,29.40
2019-04-19T14:34:06.832Z,29.40
2019-04-19T14:36:38.571Z,29.70
2019-04-19T14:39:09.061Z,29.60
2019-04-19T14:41:41.412Z,29.80
2019-04-19T14:44:11.419Z,29.60
2019-04-19T14:46:41.303Z,29.80
2019-04-19T14:49:11.234Z,29.60
2019-04-19T14:51:42.780Z,29.20
2019-04-19T14:54:12.682Z,29.30
2019-04-19T14:56:43.450Z,29.80
2019-04-19T14:59:13.426Z,30.10
2019-04-19T15:02:08.942Z,30.00
2019-04-19T15:04:42.953Z,30.40
2019-04-19T15:07:12.710Z,30.00
2019-04-19T15:09:43.852Z,30.20
2019-04-19T15:12:13.908Z,30.50
2019-04-19T15:14:44.723Z,30.90
2019-04-19T15:17:15.795Z,31.50
2019-04-19T15:19:46.682Z,31.50
2019-04-19T15:22:16.891Z,31.10
2019-04-19T15:24:47.263Z,31.00
2019-04-19T15:27:18.981Z,30.50
2019-04-19T15:29:49.255Z,30.60
2019-04-19T15:32:20.249Z,30.50
2019-04-19T15:34:51.644Z,30.60
2019-04-19T15:37:22.096Z,30.50
2019-04-19T15:39:53.865Z,31.00
2019-04-19T15:42:24.731Z,31.80
2019-04-19T15:44:55.225Z,32.00
2019-04-19T15:47:26.428Z,32.70
2019-04-19T15:49:57.847Z,33.10
2019-04-19T15:52:30.223Z,33.10
2019-04-19T15:55:00.206Z,33.20
2019-04-19T15:57:30.377Z,32.30
2019-04-19T16:00:02.260Z,32.30
2019-04-19T16:02:38.478Z,32.60
2019-04-19T16:05:26.624Z,32.80
2019-04-19T16:08:16.084Z,32.90
2019-04-19T16:11:04.597Z,33.20
2019-04-19T16:13:38.249Z,33.40
2019-04-19T16:16:08.283Z,33.20
2019-04-19T16:18:38.330Z,33.20
2019-04-19T16:21:20.103Z,33.00
2019-04-19T16:23:40.150Z,33.00
2019-04-19T16:26:10.916Z,33.30
2019-04-19T16:28:41.908Z,32.90
2019-04-19T16:31:12.531Z,32.70
2019-04-19T16:33:43.863Z,33.00
2019-04-19T16:36:18.915Z,33.00
2019-04-19T16:38:49.151Z,33.10
2019-04-19T16:41:24.706Z,33.10
2019-04-19T16:43:55.771Z,33.10
2019-04-19T16:46:30.154Z,33.00
2019-04-19T16:48:58.496Z,32.30
2019-04-19T16:51:37.631Z,32.30
2019-04-19T16:54:00.886Z,32.20
2019-04-19T16:56:33.443Z,32.30
2019-04-19T16:59:05.175Z,32.20
2019-04-19T17:01:35.221Z,32.00
2019-04-19T17:04:05.864Z,31.60
2019-04-19T17:06:36.453Z,31.60
2019-04-19T17:09:10.936Z,31.50
2019-04-19T17:11:41.993Z,31.10
2019-04-19T17:14:12.471Z,31.30
2019-04-19T17:16:56.838Z,31.10
2019-04-19T17:19:31.000Z,31.20
2019-04-19T17:22:09.024Z,31.10
2019-04-19T17:24:34.641Z,31.00
2019-04-19T17:27:04.940Z,31.70
2019-04-19T17:29:35.271Z,30.60
2019-04-19T17:32:05.861Z,30.40
2019-04-19T17:34:36.214Z,30.40
2019-04-19T17:37:06.432Z,31.10
2019-04-19T17:39:36.373Z,30.80
2019-04-19T17:42:06.485Z,30.90
2019-04-19T17:44:37.427Z,31.20
2019-04-19T17:47:10.306Z,31.40
2019-04-19T17:49:40.492Z,31.50
2019-04-19T17:52:20.856Z,31.70
2019-04-19T17:55:01.279Z,31.60
2019-04-19T17:57:15.406Z,31.50
2019-04-19T17:59:46.516Z,31.80
2019-04-19T18:02:17.042Z,32.00
2019-04-19T18:04:48.159Z,32.70
2019-04-19T18:07:18.929Z,32.10
2019-04-19T18:09:54.576Z,32.10
2019-04-19T18:12:21.140Z,32.10
2019-04-19T18:14:53.315Z,32.20
2019-04-19T18:17:24.263Z,32.40
2019-04-19T18:19:54.226Z,32.50
2019-04-19T18:22:37.945Z,32.60
2019-04-19T18:24:58.498Z,32.70
2019-04-19T18:27:28.391Z,33.30
2019-04-19T18:30:03.281Z,33.00
2019-04-19T18:32:36.257Z,33.20
2019-04-19T18:35:15.170Z,33.50
2019-04-19T18:37:41.575Z,33.50
2019-04-19T18:40:13.032Z,33.80
2019-04-19T18:42:51.138Z,33.80
2019-04-19T18:45:20.963Z,34.00
2019-04-19T18:47:47.281Z,34.10
2019-04-19T18:50:18.177Z,34.10
2019-04-19T18:52:58.777Z,34.20
2019-04-19T18:55:29.591Z,34.30
2019-04-19T18:57:54.160Z,34.50
2019-04-19T19:00:26.855Z,34.80
2019-04-19T19:03:00.348Z,34.80
2019-04-19T19:05:28.095Z,34.80
2019-04-19T19:08:01.983Z,35.00
2019-04-19T19:10:39.024Z,35.10
2019-04-19T19:13:02.379Z,35.30
2019-04-19T19:15:41.910Z,35.50
2019-04-19T19:18:04.284Z,35.60
2019-04-19T19:20:36.937Z,35.70
2019-04-19T19:23:20.142Z,35.80
2019-04-19T19:25:48.160Z,35.80
2019-04-19T19:28:17.185Z,36.00
2019-04-19T19:30:48.775Z,36.10
2019-04-19T19:33:36.541Z,35.90
2019-04-19T19:36:06.688Z,36.00
2019-04-19T19:38:48.876Z,35.50
2019-04-19T19:41:54.617Z,35.00
2019-04-19T19:43:59.740Z,35.00
2019-04-19T19:46:40.109Z,35.30
2019-04-19T19:49:31.123Z,34.10
2019-04-19T19:51:36.494Z,33.70
2019-04-19T19:54:38.930Z,33.70
2019-04-19T19:56:49.074Z,33.30
2019-04-19T19:59:15.736Z,33.10
2019-04-19T20:01:49.546Z,32.60
2019-04-19T20:04:09.726Z,32.70
2019-04-19T20:06:49.052Z,32.60
2019-04-19T20:09:22.359Z,32.80
2019-04-19T20:11:47.963Z,32.60
2019-04-19T20:14:21.973Z,32.50
2019-04-19T20:16:53.897Z,32.30
2019-04-19T20:19:24.294Z,32.50
2019-04-19T20:22:01.728Z,32.40
2019-04-19T20:24:40.140Z,32.60
2019-04-19T20:27:09.527Z,32.60
2019-04-19T20:29:33.297Z,32.70
2019-04-19T20:32:09.692Z,32.90
2019-04-19T20:34:37.472Z,33.10
2019-04-19T20:37:13.066Z,33.20
2019-04-19T20:39:45.479Z,33.40
2019-04-19T20:42:25.209Z,34.00
2019-04-19T20:44:57.529Z,33.80
2019-04-19T20:47:20.509Z,33.90
2019-04-19T20:49:51.123Z,34.00
2019-04-19T20:52:40.404Z,34.00
2019-04-19T20:55:21.800Z,34.00
2019-04-19T20:57:52.472Z,33.90
2019-04-19T21:00:20.973Z,34.00
2019-04-19T21:02:59.346Z,34.20
2019-04-19T21:05:42.565Z,34.40
2019-04-19T21:08:12.180Z,34.50
2019-04-19T21:10:42.663Z,34.40
2019-04-19T21:13:15.945Z,34.60
2019-04-19T21:15:58.377Z,35.40
2019-04-19T21:18:32.677Z,34.80
2019-04-19T21:21:09.290Z,35.10
2019-04-19T21:23:40.687Z,35.30
2019-04-19T21:26:21.538Z,35.50
2019-04-19T21:28:50.807Z,35.60
2019-04-19T21:31:27.017Z,35.80
2019-04-19T21:33:57.762Z,36.50
2019-04-19T21:36:27.874Z,36.10
2019-04-19T21:39:02.123Z,36.30
2019-04-19T21:41:33.234Z,36.70
2019-04-19T21:44:00.713Z,37.00
2019-04-19T21:46:33.365Z,37.40
2019-04-19T21:49:11.062Z,37.40
2019-04-19T21:51:36.385Z,37.40
2019-04-19T21:54:06.430Z,37.80
2019-04-19T21:56:40.363Z,37.90
2019-04-19T21:59:09.018Z,38.20
2019-04-19T22:01:46.004Z,38.60
2019-04-19T22:04:17.158Z,38.90
2019-04-19T22:06:53.926Z,39.10
2019-04-19T22:09:21.965Z,39.20
2019-04-19T22:11:50.314Z,39.60
2019-04-19T22:14:24.806Z,39.80
2019-04-19T22:16:54.733Z,39.90
2019-04-19T22:19:28.422Z,40.00
2019-04-19T22:21:56.743Z,40.10
2019-04-19T22:24:32.364Z,40.50
2019-04-19T22:26:59.636Z,40.70
2019-04-19T22:29:31.416Z,40.90
2019-04-19T22:32:08.540Z,41.00
2019-04-19T22:34:34.682Z,41.30
2019-04-19T22:37:06.757Z,41.40
2019-04-19T22:39:39.272Z,41.60
2019-04-19T22:42:10.566Z,42.00
2019-04-19T22:44:40.822Z,42.10
2019-04-19T22:47:16.612Z,42.30
2019-04-19T22:49:45.737Z,42.60
2019-04-19T22:52:16.478Z,42.80
2019-04-19T22:54:46.687Z,43.00
2019-04-19T22:57:21.744Z,43.20
2019-04-19T22:59:56.389Z,43.40
2019-04-19T23:02:48.615Z,43.70
2019-04-19T23:05:25.109Z,43.80
2019-04-19T23:07:59.072Z,44.10
2019-04-19T23:10:39.965Z,44.00
2019-04-19T23:13:02.965Z,44.50
2019-04-19T23:15:35.986Z,44.40
2019-04-19T23:18:12.730Z,44.70
2019-04-19T23:20:37.124Z,44.90
2019-04-19T23:23:14.782Z,45.10
2019-04-19T23:25:43.394Z,45.40
2019-04-19T23:28:18.820Z,45.40
2019-04-19T23:30:43.306Z,45.50
2019-04-19T23:33:18.090Z,45.70
2019-04-19T23:35:45.286Z,46.30
2019-04-19T23:38:20.807Z,46.00
2019-04-19T23:40:48.759Z,46.20
2019-04-19T23:43:27.960Z,46.20
2019-04-19T23:45:51.316Z,46.40
2019-04-19T23:48:24.893Z,46.50
2019-04-19T23:50:54.566Z,46.70
2019-04-19T23:53:32.915Z,46.90
2019-04-19T23:55:56.360Z,46.80
2019-04-19T23:58:29.532Z,47.10
